createdAt,value
2023-04-12T00:00:43.342Z,13.00
2023-04-12T00:03:47.390Z,13.00
2023-04-12T00:06:49.493Z,12.90
2023-04-12T00:09:51.773Z,12.90
2023-04-12T00:12:53.789Z,12.80
2023-04-12T00:15:55.988Z,12.70
2023-04-12T00:18:58.066Z,12.60
2023-04-12T00:22:00.279Z,12.50
2023-04-12T00:25:03.937Z,12.40
2023-04-12T00:28:06.621Z,12.30
2023-04-12T00:31:09.133Z,12.20
2023-04-12T00:34:11.050Z,12.10
2023-04-12T00:37:13.034Z,12.00
2023-04-12T00:40:15.039Z,11.90
2023-04-12T00:43:17.214Z,11.90
2023-04-12T00:46:21.816Z,11.90
2023-04-12T00:49:24.098Z,12.00
2023-04-12T00:52:26.210Z,11.90
2023-04-12T00:55:31.030Z,11.70
2023-04-12T00:58:33.140Z,11.80
2023-04-12T01:01:35.202Z,11.90
2023-04-12T01:04:37.195Z,11.90
2023-04-12T01:08:05.315Z,11.80
2023-04-12T01:11:31.365Z,11.80
2023-04-12T01:15:13.280Z,11.60
2023-04-12T01:18:21.653Z,11.60
2023-04-12T01:21:48.701Z,11.50
2023-04-12T01:25:15.792Z,11.60
2023-04-12T01:28:28.904Z,11.40
2023-04-12T01:31:33.039Z,11.40
2023-04-12T01:34:37.114Z,11.40
2023-04-12T01:37:39.940Z,11.40
2023-04-12T01:40:42.320Z,11.40
2023-04-12T01:43:46.240Z,11.50
2023-04-12T01:46:49.567Z,11.40
2023-04-12T01:50:23.605Z,11.40
2023-04-12T01:53:43.653Z,11.30
2023-04-12T01:56:50.454Z,11.20
2023-04-12T01:59:55.490Z,10.90
2023-04-12T02:06:06.276Z,11.00
2023-04-12T02:09:08.603Z,10.90
2023-04-12T02:12:10.627Z,10.80
2023-04-12T02:15:12.637Z,10.90
2023-04-12T02:18:14.595Z,10.90
2023-04-12T02:21:18.691Z,10.90
2023-04-12T02:24:21.425Z,11.10
2023-04-12T02:27:23.573Z,10.90
2023-04-12T02:30:25.847Z,11.00
2023-04-12T02:33:29.451Z,10.90
2023-04-12T02:36:33.966Z,10.90
2023-04-12T02:39:36.697Z,11.00
2023-04-12T02:42:40.494Z,11.00
2023-04-12T02:45:42.871Z,10.90
2023-04-12T02:48:46.260Z,10.70
2023-04-12T02:51:48.433Z,10.80
2023-04-12T02:54:52.297Z,10.60
2023-04-12T02:57:54.808Z,10.80
2023-04-12T03:00:57.557Z,10.50
2023-04-12T03:04:03.995Z,10.70
2023-04-12T03:07:12.916Z,10.70
2023-04-12T03:10:21.616Z,10.70
2023-04-12T03:13:33.452Z,10.80
2023-04-12T03:16:35.684Z,10.70
2023-04-12T03:19:44.626Z,10.90
2023-04-12T03:22:46.857Z,10.90
2023-04-12T03:25:48.814Z,10.90
2023-04-12T03:29:09.474Z,10.90
2023-04-12T03:32:14.422Z,10.90
2023-04-12T03:35:17.837Z,10.80
2023-04-12T03:38:20.107Z,10.70
2023-04-12T03:41:23.055Z,10.50
2023-04-12T03:44:24.971Z,10.50
2023-04-12T03:47:28.640Z,10.60
2023-04-12T03:50:31.030Z,10.40
2023-04-12T03:53:33.064Z,10.30
2023-04-12T03:56:35.471Z,10.50
2023-04-12T03:59:41.331Z,10.40
2023-04-12T04:02:44.088Z,10.40
2023-04-12T04:05:46.195Z,10.40
2023-04-12T04:08:49.939Z,10.30
2023-04-12T04:11:51.953Z,10.10
2023-04-12T04:14:55.870Z,10.40
2023-04-12T04:18:05.085Z,10.40
2023-04-12T04:21:07.606Z,10.60
2023-04-12T04:24:10.687Z,10.70
2023-04-12T04:27:17.422Z,10.40
2023-04-12T04:30:19.973Z,10.60
2023-04-12T04:33:22.969Z,10.60
2023-04-12T04:36:24.878Z,10.40
2023-04-12T04:39:30.565Z,10.70
2023-04-12T04:42:34.375Z,10.60
2023-04-12T04:45:37.860Z,10.70
2023-04-12T04:48:40.051Z,10.70
2023-04-12T04:51:42.042Z,10.60
2023-04-12T04:54:46.875Z,10.70
2023-04-12T04:57:48.868Z,10.70
2023-04-12T05:00:51.992Z,10.60
2023-04-12T05:03:54.321Z,10.70
2023-04-12T05:06:58.205Z,10.50
2023-04-12T05:10:01.509Z,10.50
2023-04-12T05:13:05.116Z,10.70
2023-04-12T05:16:08.213Z,10.60
2023-04-12T05:19:10.398Z,10.80
2023-04-12T05:22:12.444Z,10.60
2023-04-12T05:25:14.617Z,10.70
2023-04-12T05:28:26.879Z,10.70
2023-04-12T05:31:29.244Z,10.70
2023-04-12T05:34:34.183Z,10.60
2023-04-12T05:37:38.469Z,10.40
2023-04-12T05:40:40.881Z,10.70
2023-04-12T05:43:44.701Z,10.50
2023-04-12T05:46:47.104Z,10.60
2023-04-12T05:49:49.573Z,10.50
2023-04-12T05:52:53.326Z,10.50
2023-04-12T05:56:00.730Z,10.50
2023-04-12T05:59:03.862Z,10.60
2023-04-12T06:02:06.061Z,10.80
2023-04-12T06:05:08.875Z,10.90
2023-04-12T06:08:11.205Z,10.90
2023-04-12T06:11:14.561Z,10.90
2023-04-12T06:14:17.950Z,10.80
2023-04-12T06:17:21.259Z,10.90
2023-04-12T06:20:23.733Z,10.90
2023-04-12T06:23:26.207Z,10.90
2023-04-12T06:26:38.982Z,11.10
2023-04-12T06:29:42.910Z,11.10
2023-04-12T06:32:47.836Z,11.00
2023-04-12T06:35:50.396Z,11.00
2023-04-12T06:38:53.083Z,11.20
2023-04-12T06:41:55.141Z,11.00
2023-04-12T06:44:57.176Z,11.20
2023-04-12T06:47:59.251Z,11.20
2023-04-12T06:51:01.402Z,11.40
2023-04-12T06:54:03.535Z,11.20
2023-04-12T06:57:12.693Z,11.30
2023-04-12T07:00:15.063Z,11.40
2023-04-12T07:03:17.273Z,11.40
2023-04-12T07:06:25.545Z,11.50
2023-04-12T07:09:30.713Z,11.50
2023-04-12T07:12:35.982Z,11.50
2023-04-12T07:15:38.237Z,11.60
2023-04-12T07:18:42.493Z,11.60
2023-04-12T07:21:44.614Z,11.50
2023-04-12T07:24:46.641Z,11.60
2023-04-12T07:27:51.191Z,11.70
2023-04-12T07:30:56.023Z,11.70
2023-04-12T07:33:58.472Z,11.70
2023-04-12T07:37:00.602Z,11.90
2023-04-12T07:40:03.097Z,11.90
2023-04-12T07:43:05.326Z,11.70
2023-04-12T07:46:07.456Z,11.90
2023-04-12T07:49:09.568Z,11.90
2023-04-12T07:52:11.657Z,11.90
2023-04-12T07:55:13.676Z,12.10
2023-04-12T07:58:17.101Z,12.30
2023-04-12T08:01:19.231Z,12.20
2023-04-12T08:04:21.945Z,12.40
2023-04-12T08:07:24.499Z,12.40
2023-04-12T08:10:26.657Z,12.50
2023-04-12T08:13:28.799Z,12.70
2023-04-12T08:16:30.936Z,12.70
2023-04-12T08:19:33.316Z,12.70
2023-04-12T08:22:35.918Z,12.50
2023-04-12T08:25:38.593Z,12.80
2023-04-12T08:28:40.866Z,13.00
2023-04-12T08:31:45.211Z,13.00
2023-04-12T08:34:47.255Z,13.20
2023-04-12T08:37:49.621Z,13.30
2023-04-12T08:40:51.696Z,13.40
2023-04-12T08:43:53.976Z,13.60
2023-04-12T08:46:59.336Z,13.60
2023-04-12T08:50:02.075Z,13.40
2023-04-12T08:53:04.243Z,13.50
2023-04-12T08:56:09.496Z,13.40
2023-04-12T08:59:12.618Z,13.40
2023-04-12T09:02:14.760Z,13.50
2023-04-12T09:05:16.761Z,13.50
2023-04-12T09:08:18.732Z,13.60
2023-04-12T09:11:28.289Z,13.60
2023-04-12T09:14:30.338Z,13.60
2023-04-12T09:17:32.461Z,13.70
2023-04-12T09:20:34.587Z,13.80
2023-04-12T09:23:36.586Z,13.70
2023-04-12T09:26:38.718Z,13.70
2023-04-12T09:29:40.722Z,13.90
2023-04-12T09:32:42.987Z,13.90
2023-04-12T09:35:45.057Z,13.90
2023-04-12T09:39:01.021Z,13.90
2023-04-12T09:42:29.163Z,13.90
2023-04-12T09:45:37.505Z,13.90
2023-04-12T09:48:49.393Z,13.80
2023-04-12T09:51:51.966Z,13.90
2023-04-12T09:54:54.310Z,14.00
2023-04-12T09:57:56.772Z,14.10
2023-04-12T10:01:01.077Z,14.20
2023-04-12T10:04:03.785Z,14.30
2023-04-12T10:07:08.264Z,14.40
2023-04-12T10:10:14.843Z,14.40
2023-04-12T10:13:17.879Z,14.50
2023-04-12T10:16:21.379Z,14.80
2023-04-12T10:19:25.711Z,14.70
2023-04-12T10:22:27.679Z,14.70
2023-04-12T10:25:32.728Z,14.70
2023-04-12T10:28:34.728Z,14.60
2023-04-12T10:31:36.861Z,14.60
2023-04-12T10:34:43.300Z,14.60
2023-04-12T10:38:06.409Z,14.70
2023-04-12T10:41:14.061Z,14.80
2023-04-12T10:44:26.227Z,14.80
2023-04-12T10:47:50.021Z,14.80
2023-04-12T11:03:20.152Z,15.50
2023-04-12T11:06:50.436Z,15.60
2023-04-12T11:10:15.800Z,15.90
2023-04-12T11:13:18.409Z,15.90
2023-04-12T11:16:20.493Z,15.80
2023-04-12T11:19:23.906Z,15.60
2023-04-12T11:22:28.708Z,15.90
2023-04-12T11:25:31.650Z,15.90
2023-04-12T11:28:35.388Z,16.00
2023-04-12T11:31:39.097Z,15.90
2023-04-12T11:34:44.707Z,15.90
2023-04-12T11:37:46.833Z,15.90
2023-04-12T11:40:49.049Z,16.00
2023-04-12T11:43:50.997Z,16.00
2023-04-12T11:46:53.046Z,15.90
2023-04-12T11:49:59.543Z,15.90
2023-04-12T11:53:14.656Z,15.90
2023-04-12T11:56:16.636Z,15.70
2023-04-12T11:59:18.588Z,15.80
2023-04-12T12:02:24.630Z,15.90
2023-04-12T12:05:28.133Z,15.80
2023-04-12T12:08:30.475Z,15.80
2023-04-12T12:11:32.603Z,15.80
2023-04-12T12:14:35.501Z,15.90
2023-04-12T12:17:37.538Z,15.90
2023-04-12T12:20:41.179Z,15.90
2023-04-12T12:23:44.028Z,15.80
2023-04-12T12:26:49.151Z,15.80
2023-04-12T12:29:52.808Z,15.80
2023-04-12T12:32:54.852Z,15.80
2023-04-12T12:35:57.964Z,15.80
2023-04-12T12:39:12.837Z,15.90
2023-04-12T12:42:14.985Z,15.90
2023-04-12T12:45:20.370Z,16.00
2023-04-12T12:48:22.495Z,16.10
2023-04-12T12:51:24.414Z,16.20
2023-04-12T12:57:31.251Z,16.40
2023-04-12T13:00:36.338Z,16.40
2023-04-12T13:03:38.456Z,16.40
2023-04-12T13:06:40.591Z,16.40
2023-04-12T13:09:42.562Z,16.50
2023-04-12T13:12:44.537Z,16.40
2023-04-12T13:15:46.455Z,16.40
2023-04-12T13:18:48.405Z,16.40
2023-04-12T13:21:52.551Z,16.40
2023-04-12T13:24:55.300Z,16.40
2023-04-12T13:27:57.202Z,16.40
2023-04-12T13:30:59.238Z,16.40
2023-04-12T13:34:01.608Z,16.40
2023-04-12T13:37:03.597Z,16.50
2023-04-12T13:40:06.018Z,16.70
2023-04-12T13:43:07.978Z,16.80
2023-04-12T13:46:10.098Z,16.70
2023-04-12T13:49:18.690Z,16.70
2023-04-12T13:52:20.808Z,16.60
2023-04-12T13:55:22.973Z,16.40
2023-04-12T13:58:24.983Z,16.40
2023-04-12T14:01:26.948Z,16.20
2023-04-12T14:04:31.899Z,16.00
2023-04-12T14:07:33.878Z,15.90
2023-04-12T14:10:35.889Z,15.80
2023-04-12T14:13:37.842Z,15.40
2023-04-12T14:16:39.996Z,15.30
2023-04-12T14:19:41.928Z,14.90
2023-04-12T14:22:44.322Z,14.60
2023-04-12T14:25:46.175Z,14.10
2023-04-12T14:28:48.744Z,13.60
2023-04-12T14:31:50.720Z,13.50
2023-04-12T14:34:52.669Z,13.40
2023-04-12T14:37:54.748Z,13.40
2023-04-12T14:40:56.825Z,13.30
2023-04-12T14:44:04.272Z,13.40
2023-04-12T14:47:09.896Z,13.40
2023-04-12T14:50:11.933Z,13.50
2023-04-12T14:53:13.908Z,13.50
2023-04-12T14:56:24.981Z,13.60
2023-04-12T14:59:28.133Z,13.70
2023-04-12T15:02:30.332Z,13.60
2023-04-12T15:05:32.551Z,13.70
2023-04-12T15:08:35.014Z,13.90
2023-04-12T15:11:37.034Z,14.00
2023-04-12T15:14:41.472Z,14.20
2023-04-12T15:17:43.453Z,14.20
2023-04-12T15:20:45.451Z,14.10
2023-04-12T15:23:47.502Z,14.20
2023-04-12T15:26:50.980Z,14.10
2023-04-12T15:29:52.917Z,14.30
2023-04-12T15:32:55.170Z,14.20
2023-04-12T15:35:58.438Z,14.40
2023-04-12T15:39:01.255Z,14.30
2023-04-12T15:42:04.556Z,14.40
2023-04-12T15:45:06.911Z,14.40
2023-04-12T15:48:08.839Z,14.40
2023-04-12T15:51:13.105Z,14.50
2023-04-12T15:54:15.060Z,14.50
2023-04-12T15:57:17.114Z,14.60
2023-04-12T16:00:19.195Z,14.40
2023-04-12T16:03:22.213Z,14.40
2023-04-12T16:06:24.331Z,14.30
2023-04-12T16:09:32.811Z,14.20
2023-04-12T16:12:35.419Z,14.30
2023-04-12T16:15:37.471Z,14.40
2023-04-12T16:18:42.611Z,14.40
2023-04-12T16:21:44.669Z,14.50
2023-04-12T16:24:53.094Z,14.50
2023-04-12T16:27:55.175Z,14.50
2023-04-12T16:30:57.306Z,14.40
2023-04-12T16:33:59.353Z,14.50
2023-04-12T16:37:01.330Z,14.50
2023-04-12T16:40:03.956Z,14.70
2023-04-12T16:43:12.045Z,14.80
2023-04-12T16:46:14.059Z,14.70
2023-04-12T16:49:19.809Z,14.60
2023-04-12T16:52:27.883Z,14.50
2023-04-12T16:55:29.848Z,14.30
2023-04-12T17:01:38.934Z,14.10
2023-04-12T17:04:46.950Z,14.10
2023-04-12T17:07:50.845Z,14.00
2023-04-12T17:10:58.916Z,14.00
2023-04-12T17:14:01.071Z,14.10
2023-04-12T17:17:05.003Z,13.90
2023-04-12T17:20:17.059Z,13.90
2023-04-12T17:23:19.280Z,13.90
2023-04-12T17:26:21.499Z,13.90
2023-04-12T17:29:23.598Z,13.80
2023-04-12T17:32:33.166Z,13.80
2023-04-12T17:38:50.061Z,13.70
2023-04-12T17:45:00.257Z,13.70
2023-04-12T17:48:02.514Z,13.70
2023-04-12T17:51:06.443Z,13.70
2023-04-12T17:54:08.625Z,13.70
2023-04-12T17:57:10.841Z,13.60
2023-04-12T18:00:15.943Z,13.60
2023-04-12T18:03:18.303Z,13.60
2023-04-12T18:06:20.681Z,13.50
2023-04-12T18:09:28.535Z,13.50
2023-04-12T18:12:31.140Z,13.50
2023-04-12T18:15:33.512Z,13.40
2023-04-12T18:18:37.374Z,13.40
2023-04-12T18:21:46.891Z,13.40
2023-04-12T18:24:49.004Z,13.40
2023-04-12T18:27:56.252Z,13.40
2023-04-12T18:31:02.851Z,13.30
2023-04-12T18:34:06.234Z,13.30
2023-04-12T18:37:09.036Z,13.20
2023-04-12T18:40:12.245Z,13.30
2023-04-12T18:43:14.579Z,13.10
2023-04-12T18:46:19.419Z,13.10
2023-04-12T18:49:23.687Z,13.20
2023-04-12T18:52:25.937Z,13.10
2023-04-12T18:55:31.213Z,13.10
2023-04-12T18:58:46.065Z,13.10
2023-04-12T19:01:56.118Z,13.20
2023-04-12T19:04:58.423Z,13.10
2023-04-12T19:08:03.720Z,13.00
2023-04-12T19:11:07.272Z,13.00
2023-04-12T19:14:11.800Z,13.00
2023-04-12T19:17:13.888Z,13.00
2023-04-12T19:20:16.783Z,13.00
2023-04-12T19:23:18.955Z,13.10
2023-04-12T19:26:21.239Z,13.10
2023-04-12T19:29:23.402Z,13.20
2023-04-12T19:32:25.562Z,13.20
2023-04-12T19:35:27.637Z,13.20
2023-04-12T19:38:29.773Z,12.90
2023-04-12T19:41:31.935Z,12.60
2023-04-12T19:44:34.105Z,12.40
2023-04-12T19:47:36.371Z,12.30
2023-04-12T19:50:38.568Z,12.40
2023-04-12T19:53:40.703Z,12.30
2023-04-12T19:56:42.761Z,12.20
2023-04-12T19:59:44.877Z,12.20
2023-04-12T20:02:49.178Z,12.10
2023-04-12T20:05:51.712Z,12.10
2023-04-12T20:08:53.750Z,12.10
2023-04-12T20:11:55.818Z,12.00
2023-04-12T20:14:57.900Z,12.00
2023-04-12T20:18:00.131Z,11.90
2023-04-12T20:21:02.420Z,11.90
2023-04-12T20:24:08.466Z,11.90
2023-04-12T20:27:10.607Z,11.70
2023-04-12T20:30:13.150Z,11.70
2023-04-12T20:33:15.329Z,11.90
2023-04-12T20:36:17.905Z,11.80
2023-04-12T20:39:19.873Z,11.70
2023-04-12T20:42:22.562Z,11.70
2023-04-12T20:45:24.981Z,11.80
2023-04-12T20:48:28.927Z,11.70
2023-04-12T20:51:30.934Z,11.70
2023-04-12T20:54:33.096Z,11.60
2023-04-12T20:57:35.204Z,11.70
2023-04-12T21:00:37.225Z,11.60
2023-04-12T21:03:39.382Z,11.60
2023-04-12T21:06:41.837Z,11.60
2023-04-12T21:09:44.121Z,11.70
2023-04-12T21:12:46.101Z,11.70
2023-04-12T21:15:49.291Z,11.60
2023-04-12T21:18:51.481Z,11.60
2023-04-12T21:21:53.497Z,11.50
2023-04-12T21:24:55.466Z,11.60
2023-04-12T21:27:57.579Z,11.60
2023-04-12T21:30:59.756Z,11.40
2023-04-12T21:34:02.372Z,11.40
2023-04-12T21:37:04.614Z,11.40
2023-04-12T21:40:07.801Z,11.40
2023-04-12T21:43:10.274Z,11.40
2023-04-12T21:46:12.481Z,11.40
2023-04-12T21:49:14.441Z,11.40
2023-04-12T21:52:16.450Z,11.30
2023-04-12T21:55:18.338Z,11.20
2023-04-12T21:58:20.412Z,11.20
2023-04-12T22:01:22.781Z,11.30
2023-04-12T22:04:24.841Z,11.40
2023-04-12T22:07:26.832Z,11.20
2023-04-12T22:10:28.780Z,11.20
2023-04-12T22:13:30.966Z,11.20
2023-04-12T22:16:32.979Z,11.30
2023-04-12T22:19:34.960Z,11.30
2023-04-12T22:22:43.692Z,11.30
2023-04-12T22:25:45.815Z,11.30
2023-04-12T22:28:47.855Z,11.30
2023-04-12T22:31:49.933Z,11.40
2023-04-12T22:35:01.167Z,11.30
2023-04-12T22:38:10.055Z,11.30
2023-04-12T22:41:15.175Z,11.30
2023-04-12T22:44:17.382Z,11.30
2023-04-12T22:47:22.399Z,11.20
2023-04-12T22:50:24.454Z,11.20
2023-04-12T22:53:27.839Z,11.10
2023-04-12T22:56:29.913Z,11.20
2023-04-12T22:59:31.936Z,11.10
2023-04-12T23:02:34.411Z,11.10
2023-04-12T23:05:38.377Z,11.10
2023-04-12T23:08:40.476Z,11.10
2023-04-12T23:11:42.614Z,11.00
2023-04-12T23:14:44.572Z,11.00
2023-04-12T23:17:47.140Z,11.10
2023-04-12T23:20:49.048Z,11.10
2023-04-12T23:23:50.974Z,11.10
2023-04-12T23:26:52.882Z,11.10
2023-04-12T23:29:56.991Z,11.10
2023-04-12T23:32:59.027Z,11.00
2023-04-12T23:36:01.031Z,11.00
2023-04-12T23:39:03.285Z,10.90
2023-04-12T23:42:05.423Z,10.80
2023-04-12T23:45:08.566Z,10.70
2023-04-12T23:48:10.657Z,10.70
2023-04-12T23:51:12.609Z,10.60
2023-04-12T23:54:14.565Z,10.70
2023-04-12T23:57:16.478Z,10.80
